sensor_id;sensor_type;location;lat;lon;timestamp;P1;durP1;ratioP1;P2;durP2;ratioP2
51854;SDS011;37895;53.240;6.572;2023-11-19T00:01:22;95.60;;;41.20;;
51854;SDS011;37895;53.240;6.572;2023-11-19T00:03:48;70.35;;;35.88;;
51854;SDS011;37895;53.240;6.572;2023-11-19T00:06:14;76.10;;;38.38;;
51854;SDS011;37895;53.240;6.572;2023-11-19T00:08:41;82.65;;;36.90;;
51854;SDS011;37895;53.240;6.572;2023-11-19T00:11:08;68.93;;;36.00;;
51854;SDS011;37895;53.240;6.572;2023-11-19T00:13:34;64.50;;;33.75;;
51854;SDS011;37895;53.240;6.572;2023-11-19T00:16:00;76.05;;;34.85;;
51854;SDS011;37895;53.240;6.572;2023-11-19T00:18:25;81.10;;;33.47;;
51854;SDS011;37895;53.240;6.572;2023-11-19T00:20:51;69.25;;;33.38;;
51854;SDS011;37895;53.240;6.572;2023-11-19T00:23:16;66.22;;;31.95;;
51854;SDS011;37895;53.240;6.572;2023-11-19T00:25:42;69.00;;;32.33;;
51854;SDS011;37895;53.240;6.572;2023-11-19T00:28:07;62.20;;;30.27;;
51854;SDS011;37895;53.240;6.572;2023-11-19T00:30:33;63.58;;;28.73;;
51854;SDS011;37895;53.240;6.572;2023-11-19T00:32:59;63.67;;;29.48;;
51854;SDS011;37895;53.240;6.572;2023-11-19T00:35:24;75.15;;;30.85;;
51854;SDS011;37895;53.240;6.572;2023-11-19T00:37:50;49.35;;;24.25;;
51854;SDS011;37895;53.240;6.572;2023-11-19T00:40:16;55.70;;;24.42;;
51854;SDS011;37895;53.240;6.572;2023-11-19T00:42:43;60.00;;;20.48;;
51854;SDS011;37895;53.240;6.572;2023-11-19T00:45:09;55.50;;;21.30;;
51854;SDS011;37895;53.240;6.572;2023-11-19T00:50:01;51.35;;;17.95;;
51854;SDS011;37895;53.240;6.572;2023-11-19T00:52:27;50.60;;;16.00;;
51854;SDS011;37895;53.240;6.572;2023-11-19T00:54:53;49.97;;;16.85;;
51854;SDS011;37895;53.240;6.572;2023-11-19T00:57:18;53.35;;;14.40;;
51854;SDS011;37895;53.240;6.572;2023-11-19T00:59:44;43.83;;;15.05;;
51854;SDS011;37895;53.240;6.572;2023-11-19T01:02:10;47.35;;;14.50;;
51854;SDS011;37895;53.240;6.572;2023-11-19T01:04:36;45.83;;;14.18;;
51854;SDS011;37895;53.240;6.572;2023-11-19T01:07:04;41.90;;;12.00;;
51854;SDS011;37895;53.240;6.572;2023-11-19T01:09:31;42.90;;;13.07;;
51854;SDS011;37895;53.240;6.572;2023-11-19T01:12:00;49.05;;;12.73;;
51854;SDS011;37895;53.240;6.572;2023-11-19T01:14:27;47.05;;;12.95;;
51854;SDS011;37895;53.240;6.572;2023-11-19T01:19:22;38.08;;;12.38;;
51854;SDS011;37895;53.240;6.572;2023-11-19T01:21:48;38.30;;;10.85;;
51854;SDS011;37895;53.240;6.572;2023-11-19T01:24:14;44.55;;;11.98;;
51854;SDS011;37895;53.240;6.572;2023-11-19T01:26:40;51.58;;;11.80;;
51854;SDS011;37895;53.240;6.572;2023-11-19T01:29:15;54.53;;;11.30;;
51854;SDS011;37895;53.240;6.572;2023-11-19T01:31:45;47.72;;;12.75;;
51854;SDS011;37895;53.240;6.572;2023-11-19T01:34:12;41.08;;;11.30;;
51854;SDS011;37895;53.240;6.572;2023-11-19T01:36:38;37.83;;;12.05;;
51854;SDS011;37895;53.240;6.572;2023-11-19T01:39:04;47.92;;;12.77;;
51854;SDS011;37895;53.240;6.572;2023-11-19T01:41:33;37.83;;;12.63;;
51854;SDS011;37895;53.240;6.572;2023-11-19T01:44:00;44.83;;;11.93;;
51854;SDS011;37895;53.240;6.572;2023-11-19T01:46:26;53.53;;;13.70;;
51854;SDS011;37895;53.240;6.572;2023-11-19T01:48:52;43.17;;;12.60;;
51854;SDS011;37895;53.240;6.572;2023-11-19T01:51:19;43.78;;;11.38;;
51854;SDS011;37895;53.240;6.572;2023-11-19T01:53:46;45.13;;;11.25;;
51854;SDS011;37895;53.240;6.572;2023-11-19T01:56:13;45.55;;;11.80;;
51854;SDS011;37895;53.240;6.572;2023-11-19T01:58:39;38.90;;;10.30;;
51854;SDS011;37895;53.240;6.572;2023-11-19T02:01:06;43.85;;;10.68;;
51854;SDS011;37895;53.240;6.572;2023-11-19T02:03:32;48.22;;;12.00;;
51854;SDS011;37895;53.240;6.572;2023-11-19T02:06:02;41.58;;;11.00;;
51854;SDS011;37895;53.240;6.572;2023-11-19T02:08:29;42.17;;;10.73;;
51854;SDS011;37895;53.240;6.572;2023-11-19T02:10:55;45.72;;;10.75;;
51854;SDS011;37895;53.240;6.572;2023-11-19T02:13:25;44.30;;;11.40;;
51854;SDS011;37895;53.240;6.572;2023-11-19T02:15:53;46.72;;;10.75;;
51854;SDS011;37895;53.240;6.572;2023-11-19T02:18:24;47.10;;;10.68;;
51854;SDS011;37895;53.240;6.572;2023-11-19T02:20:53;42.67;;;10.65;;
51854;SDS011;37895;53.240;6.572;2023-11-19T02:23:20;50.50;;;11.18;;
51854;SDS011;37895;53.240;6.572;2023-11-19T02:25:59;42.88;;;9.90;;
51854;SDS011;37895;53.240;6.572;2023-11-19T02:28:48;51.45;;;11.77;;
51854;SDS011;37895;53.240;6.572;2023-11-19T02:33:40;39.90;;;11.93;;
51854;SDS011;37895;53.240;6.572;2023-11-19T02:36:07;40.90;;;10.65;;
51854;SDS011;37895;53.240;6.572;2023-11-19T02:38:33;50.78;;;10.80;;
51854;SDS011;37895;53.240;6.572;2023-11-19T02:41:02;47.25;;;10.75;;
51854;SDS011;37895;53.240;6.572;2023-11-19T02:43:29;48.08;;;10.98;;
51854;SDS011;37895;53.240;6.572;2023-11-19T02:45:56;48.90;;;10.82;;
51854;SDS011;37895;53.240;6.572;2023-11-19T02:48:22;44.45;;;11.38;;
51854;SDS011;37895;53.240;6.572;2023-11-19T02:50:48;45.15;;;10.63;;
51854;SDS011;37895;53.240;6.572;2023-11-19T02:53:13;48.90;;;11.65;;
51854;SDS011;37895;53.240;6.572;2023-11-19T02:55:39;41.35;;;10.85;;
51854;SDS011;37895;53.240;6.572;2023-11-19T02:58:06;36.20;;;10.23;;
51854;SDS011;37895;53.240;6.572;2023-11-19T03:00:39;39.80;;;11.40;;
51854;SDS011;37895;53.240;6.572;2023-11-19T03:03:12;39.45;;;10.40;;
51854;SDS011;37895;53.240;6.572;2023-11-19T03:05:47;44.25;;;12.13;;
51854;SDS011;37895;53.240;6.572;2023-11-19T03:08:13;43.75;;;11.18;;
51854;SDS011;37895;53.240;6.572;2023-11-19T03:10:40;46.22;;;10.30;;
51854;SDS011;37895;53.240;6.572;2023-11-19T03:13:06;41.42;;;11.50;;
51854;SDS011;37895;53.240;6.572;2023-11-19T03:15:38;38.38;;;9.82;;
51854;SDS011;37895;53.240;6.572;2023-11-19T03:18:03;45.65;;;10.75;;
51854;SDS011;37895;53.240;6.572;2023-11-19T03:20:29;41.60;;;10.85;;
51854;SDS011;37895;53.240;6.572;2023-11-19T03:22:55;46.20;;;11.20;;
51854;SDS011;37895;53.240;6.572;2023-11-19T03:25:23;36.00;;;10.02;;
51854;SDS011;37895;53.240;6.572;2023-11-19T03:27:51;38.53;;;10.82;;
51854;SDS011;37895;53.240;6.572;2023-11-19T03:30:18;39.30;;;10.73;;
51854;SDS011;37895;53.240;6.572;2023-11-19T03:32:45;49.42;;;11.18;;
51854;SDS011;37895;53.240;6.572;2023-11-19T03:35:11;40.42;;;10.05;;
51854;SDS011;37895;53.240;6.572;2023-11-19T03:37:37;41.58;;;10.38;;
51854;SDS011;37895;53.240;6.572;2023-11-19T03:40:04;38.60;;;10.48;;
51854;SDS011;37895;53.240;6.572;2023-11-19T03:42:31;39.38;;;10.25;;
51854;SDS011;37895;53.240;6.572;2023-11-19T03:44:56;43.80;;;11.10;;
51854;SDS011;37895;53.240;6.572;2023-11-19T03:47:22;35.05;;;9.55;;
51854;SDS011;37895;53.240;6.572;2023-11-19T03:49:49;45.10;;;9.95;;
51854;SDS011;37895;53.240;6.572;2023-11-19T03:52:15;43.15;;;11.45;;
51854;SDS011;37895;53.240;6.572;2023-11-19T03:54:41;40.25;;;10.50;;
51854;SDS011;37895;53.240;6.572;2023-11-19T03:57:07;39.05;;;10.35;;
51854;SDS011;37895;53.240;6.572;2023-11-19T03:59:35;48.90;;;11.02;;
51854;SDS011;37895;53.240;6.572;2023-11-19T04:02:01;44.72;;;12.20;;
51854;SDS011;37895;53.240;6.572;2023-11-19T04:04:27;50.00;;;11.43;;
51854;SDS011;37895;53.240;6.572;2023-11-19T04:06:54;40.08;;;10.90;;
51854;SDS011;37895;53.240;6.572;2023-11-19T04:11:46;37.75;;;10.25;;
51854;SDS011;37895;53.240;6.572;2023-11-19T04:14:12;41.92;;;11.43;;
51854;SDS011;37895;53.240;6.572;2023-11-19T04:16:38;47.05;;;11.63;;
51854;SDS011;37895;53.240;6.572;2023-11-19T04:19:04;38.90;;;11.38;;
51854;SDS011;37895;53.240;6.572;2023-11-19T04:21:30;39.75;;;10.88;;
51854;SDS011;37895;53.240;6.572;2023-11-19T04:23:55;41.33;;;11.15;;
51854;SDS011;37895;53.240;6.572;2023-11-19T04:26:21;41.50;;;11.27;;
51854;SDS011;37895;53.240;6.572;2023-11-19T04:28:47;38.92;;;10.35;;
51854;SDS011;37895;53.240;6.572;2023-11-19T04:31:14;47.92;;;11.82;;
51854;SDS011;37895;53.240;6.572;2023-11-19T04:33:41;45.30;;;11.27;;
51854;SDS011;37895;53.240;6.572;2023-11-19T04:36:07;49.83;;;12.15;;
51854;SDS011;37895;53.240;6.572;2023-11-19T04:38:33;49.15;;;11.38;;
51854;SDS011;37895;53.240;6.572;2023-11-19T04:43:25;49.50;;;12.10;;
51854;SDS011;37895;53.240;6.572;2023-11-19T04:45:51;40.97;;;12.68;;
51854;SDS011;37895;53.240;6.572;2023-11-19T04:48:16;41.90;;;10.27;;
51854;SDS011;37895;53.240;6.572;2023-11-19T04:50:42;47.60;;;12.40;;
51854;SDS011;37895;53.240;6.572;2023-11-19T04:53:08;43.03;;;11.15;;
51854;SDS011;37895;53.240;6.572;2023-11-19T04:55:33;49.47;;;11.95;;
51854;SDS011;37895;53.240;6.572;2023-11-19T04:57:59;48.25;;;11.57;;
51854;SDS011;37895;53.240;6.572;2023-11-19T05:00:24;46.92;;;11.68;;
51854;SDS011;37895;53.240;6.572;2023-11-19T05:02:50;51.10;;;11.30;;
51854;SDS011;37895;53.240;6.572;2023-11-19T05:05:16;46.65;;;10.88;;
51854;SDS011;37895;53.240;6.572;2023-11-19T05:07:42;44.35;;;11.50;;
51854;SDS011;37895;53.240;6.572;2023-11-19T05:10:08;44.83;;;11.82;;
51854;SDS011;37895;53.240;6.572;2023-11-19T05:12:34;41.88;;;10.80;;
51854;SDS011;37895;53.240;6.572;2023-11-19T05:14:59;45.58;;;11.95;;
51854;SDS011;37895;53.240;6.572;2023-11-19T05:17:25;49.92;;;11.95;;
51854;SDS011;37895;53.240;6.572;2023-11-19T05:19:51;42.17;;;11.77;;
51854;SDS011;37895;53.240;6.572;2023-11-19T05:22:17;55.03;;;12.27;;
51854;SDS011;37895;53.240;6.572;2023-11-19T05:24:42;42.72;;;11.10;;
51854;SDS011;37895;53.240;6.572;2023-11-19T05:29:36;53.40;;;12.90;;
51854;SDS011;37895;53.240;6.572;2023-11-19T05:32:04;44.55;;;12.38;;
51854;SDS011;37895;53.240;6.572;2023-11-19T05:36:55;48.35;;;12.40;;
51854;SDS011;37895;53.240;6.572;2023-11-19T05:41:47;44.50;;;11.80;;
51854;SDS011;37895;53.240;6.572;2023-11-19T05:44:13;48.85;;;13.07;;
51854;SDS011;37895;53.240;6.572;2023-11-19T05:46:38;56.60;;;11.57;;
51854;SDS011;37895;53.240;6.572;2023-11-19T05:49:07;43.97;;;12.65;;
51854;SDS011;37895;53.240;6.572;2023-11-19T05:51:36;44.58;;;11.85;;
51854;SDS011;37895;53.240;6.572;2023-11-19T05:54:06;54.58;;;12.75;;
51854;SDS011;37895;53.240;6.572;2023-11-19T05:56:34;54.83;;;13.38;;
51854;SDS011;37895;53.240;6.572;2023-11-19T05:59:00;48.60;;;11.80;;
51854;SDS011;37895;53.240;6.572;2023-11-19T06:01:28;51.20;;;11.75;;
51854;SDS011;37895;53.240;6.572;2023-11-19T06:03:57;43.15;;;11.75;;
51854;SDS011;37895;53.240;6.572;2023-11-19T06:06:23;45.70;;;10.75;;
51854;SDS011;37895;53.240;6.572;2023-11-19T06:08:49;40.47;;;11.57;;
51854;SDS011;37895;53.240;6.572;2023-11-19T06:11:15;52.90;;;12.50;;
51854;SDS011;37895;53.240;6.572;2023-11-19T06:13:44;46.45;;;13.15;;
51854;SDS011;37895;53.240;6.572;2023-11-19T06:16:09;48.65;;;11.43;;
51854;SDS011;37895;53.240;6.572;2023-11-19T06:18:38;47.97;;;11.98;;
51854;SDS011;37895;53.240;6.572;2023-11-19T06:21:05;44.10;;;11.25;;
51854;SDS011;37895;53.240;6.572;2023-11-19T06:23:31;49.55;;;11.43;;
51854;SDS011;37895;53.240;6.572;2023-11-19T06:25:56;49.03;;;12.48;;
51854;SDS011;37895;53.240;6.572;2023-11-19T06:28:22;50.67;;;10.65;;
51854;SDS011;37895;53.240;6.572;2023-11-19T06:30:48;49.05;;;11.63;;
51854;SDS011;37895;53.240;6.572;2023-11-19T06:33:13;45.67;;;13.00;;
51854;SDS011;37895;53.240;6.572;2023-11-19T06:35:39;46.40;;;11.35;;
51854;SDS011;37895;53.240;6.572;2023-11-19T06:38:05;51.42;;;12.43;;
51854;SDS011;37895;53.240;6.572;2023-11-19T06:40:31;58.20;;;13.38;;
51854;SDS011;37895;53.240;6.572;2023-11-19T06:43:00;51.25;;;13.13;;
51854;SDS011;37895;53.240;6.572;2023-11-19T06:45:27;43.25;;;11.57;;
51854;SDS011;37895;53.240;6.572;2023-11-19T06:47:53;44.03;;;11.93;;
51854;SDS011;37895;53.240;6.572;2023-11-19T06:50:19;50.92;;;12.75;;
51854;SDS011;37895;53.240;6.572;2023-11-19T06:52:44;51.75;;;11.27;;
51854;SDS011;37895;53.240;6.572;2023-11-19T06:55:10;54.15;;;12.48;;
51854;SDS011;37895;53.240;6.572;2023-11-19T06:57:36;47.08;;;11.55;;
51854;SDS011;37895;53.240;6.572;2023-11-19T07:00:02;50.00;;;11.50;;
51854;SDS011;37895;53.240;6.572;2023-11-19T07:02:30;41.03;;;11.20;;
51854;SDS011;37895;53.240;6.572;2023-11-19T07:04:56;53.30;;;11.25;;
51854;SDS011;37895;53.240;6.572;2023-11-19T07:07:22;44.92;;;11.77;;
51854;SDS011;37895;53.240;6.572;2023-11-19T07:09:48;43.50;;;11.85;;
51854;SDS011;37895;53.240;6.572;2023-11-19T07:12:14;52.50;;;12.45;;
51854;SDS011;37895;53.240;6.572;2023-11-19T07:14:40;51.00;;;12.60;;
51854;SDS011;37895;53.240;6.572;2023-11-19T07:17:07;47.80;;;11.35;;
51854;SDS011;37895;53.240;6.572;2023-11-19T07:19:34;51.17;;;13.02;;
51854;SDS011;37895;53.240;6.572;2023-11-19T07:22:01;45.13;;;11.88;;
51854;SDS011;37895;53.240;6.572;2023-11-19T07:24:27;50.60;;;11.27;;
51854;SDS011;37895;53.240;6.572;2023-11-19T07:26:53;51.10;;;12.63;;
51854;SDS011;37895;53.240;6.572;2023-11-19T07:29:19;47.88;;;11.35;;
51854;SDS011;37895;53.240;6.572;2023-11-19T07:31:47;51.03;;;13.00;;
51854;SDS011;37895;53.240;6.572;2023-11-19T07:34:13;42.42;;;11.23;;
51854;SDS011;37895;53.240;6.572;2023-11-19T07:36:39;50.95;;;12.88;;
51854;SDS011;37895;53.240;6.572;2023-11-19T07:39:05;44.42;;;12.27;;
51854;SDS011;37895;53.240;6.572;2023-11-19T07:41:31;52.42;;;12.23;;
51854;SDS011;37895;53.240;6.572;2023-11-19T07:43:57;46.47;;;13.43;;
51854;SDS011;37895;53.240;6.572;2023-11-19T07:46:23;45.08;;;12.27;;
51854;SDS011;37895;53.240;6.572;2023-11-19T07:48:50;46.47;;;13.00;;
51854;SDS011;37895;53.240;6.572;2023-11-19T07:51:15;51.38;;;11.60;;
51854;SDS011;37895;53.240;6.572;2023-11-19T07:53:41;45.67;;;12.02;;
51854;SDS011;37895;53.240;6.572;2023-11-19T07:56:07;50.47;;;11.88;;
51854;SDS011;37895;53.240;6.572;2023-11-19T08:00:58;44.80;;;12.05;;
51854;SDS011;37895;53.240;6.572;2023-11-19T08:03:24;47.80;;;11.38;;
51854;SDS011;37895;53.240;6.572;2023-11-19T08:05:50;37.75;;;11.38;;
51854;SDS011;37895;53.240;6.572;2023-11-19T08:08:16;49.63;;;11.30;;
51854;SDS011;37895;53.240;6.572;2023-11-19T08:10:41;51.85;;;12.50;;
51854;SDS011;37895;53.240;6.572;2023-11-19T08:13:08;46.50;;;11.57;;
51854;SDS011;37895;53.240;6.572;2023-11-19T08:15:34;36.20;;;9.98;;
51854;SDS011;37895;53.240;6.572;2023-11-19T08:17:59;49.90;;;12.30;;
51854;SDS011;37895;53.240;6.572;2023-11-19T08:20:25;35.95;;;10.88;;
51854;SDS011;37895;53.240;6.572;2023-11-19T08:22:51;44.38;;;12.27;;
51854;SDS011;37895;53.240;6.572;2023-11-19T08:25:16;41.70;;;11.23;;
51854;SDS011;37895;53.240;6.572;2023-11-19T08:27:42;51.80;;;12.27;;
51854;SDS011;37895;53.240;6.572;2023-11-19T08:30:08;50.47;;;11.98;;
51854;SDS011;37895;53.240;6.572;2023-11-19T08:32:34;44.67;;;11.13;;
51854;SDS011;37895;53.240;6.572;2023-11-19T08:35:00;43.75;;;11.15;;
51854;SDS011;37895;53.240;6.572;2023-11-19T08:37:26;46.45;;;10.85;;
51854;SDS011;37895;53.240;6.572;2023-11-19T08:39:52;43.10;;;11.15;;
51854;SDS011;37895;53.240;6.572;2023-11-19T08:42:18;45.60;;;11.10;;
51854;SDS011;37895;53.240;6.572;2023-11-19T08:44:44;46.38;;;11.60;;
51854;SDS011;37895;53.240;6.572;2023-11-19T08:47:15;51.22;;;11.68;;
51854;SDS011;37895;53.240;6.572;2023-11-19T08:49:42;45.15;;;11.18;;
51854;SDS011;37895;53.240;6.572;2023-11-19T08:52:08;43.35;;;11.88;;
51854;SDS011;37895;53.240;6.572;2023-11-19T08:54:35;41.42;;;11.13;;
51854;SDS011;37895;53.240;6.572;2023-11-19T08:59:28;44.70;;;12.05;;
51854;SDS011;37895;53.240;6.572;2023-11-19T09:04:19;42.22;;;11.38;;
51854;SDS011;37895;53.240;6.572;2023-11-19T09:06:47;38.78;;;11.02;;
51854;SDS011;37895;53.240;6.572;2023-11-19T09:09:13;46.63;;;11.85;;
51854;SDS011;37895;53.240;6.572;2023-11-19T09:11:39;41.00;;;11.50;;
51854;SDS011;37895;53.240;6.572;2023-11-19T09:14:05;48.17;;;12.63;;
51854;SDS011;37895;53.240;6.572;2023-11-19T09:16:30;49.55;;;12.13;;
51854;SDS011;37895;53.240;6.572;2023-11-19T09:18:57;48.70;;;11.48;;
51854;SDS011;37895;53.240;6.572;2023-11-19T09:21:24;41.47;;;11.07;;
51854;SDS011;37895;53.240;6.572;2023-11-19T09:26:16;40.20;;;11.98;;
51854;SDS011;37895;53.240;6.572;2023-11-19T09:28:41;43.15;;;11.25;;
51854;SDS011;37895;53.240;6.572;2023-11-19T09:31:13;42.83;;;11.48;;
51854;SDS011;37895;53.240;6.572;2023-11-19T09:33:40;45.13;;;11.93;;
51854;SDS011;37895;53.240;6.572;2023-11-19T09:36:05;42.58;;;11.48;;
51854;SDS011;37895;53.240;6.572;2023-11-19T09:38:31;41.70;;;11.07;;
51854;SDS011;37895;53.240;6.572;2023-11-19T09:40:58;43.78;;;11.82;;
51854;SDS011;37895;53.240;6.572;2023-11-19T09:43:25;41.17;;;11.43;;
51854;SDS011;37895;53.240;6.572;2023-11-19T09:45:53;57.28;;;12.82;;
51854;SDS011;37895;53.240;6.572;2023-11-19T09:48:21;42.95;;;11.93;;
51854;SDS011;37895;53.240;6.572;2023-11-19T09:50:49;46.50;;;12.13;;
51854;SDS011;37895;53.240;6.572;2023-11-19T09:53:16;50.65;;;12.13;;
51854;SDS011;37895;53.240;6.572;2023-11-19T09:55:42;46.67;;;11.30;;
51854;SDS011;37895;53.240;6.572;2023-11-19T09:58:09;49.85;;;11.57;;
51854;SDS011;37895;53.240;6.572;2023-11-19T10:00:39;42.63;;;11.70;;
51854;SDS011;37895;53.240;6.572;2023-11-19T10:05:32;42.08;;;11.38;;
51854;SDS011;37895;53.240;6.572;2023-11-19T10:07:58;51.05;;;11.75;;
51854;SDS011;37895;53.240;6.572;2023-11-19T10:10:24;43.83;;;10.32;;
51854;SDS011;37895;53.240;6.572;2023-11-19T10:12:52;42.75;;;10.90;;
51854;SDS011;37895;53.240;6.572;2023-11-19T10:15:20;46.17;;;11.27;;
51854;SDS011;37895;53.240;6.572;2023-11-19T10:17:47;47.42;;;12.15;;
51854;SDS011;37895;53.240;6.572;2023-11-19T10:20:13;36.05;;;11.05;;
51854;SDS011;37895;53.240;6.572;2023-11-19T10:22:39;35.17;;;10.75;;
51854;SDS011;37895;53.240;6.572;2023-11-19T10:25:26;46.35;;;10.60;;
51854;SDS011;37895;53.240;6.572;2023-11-19T10:27:51;40.85;;;11.35;;
51854;SDS011;37895;53.240;6.572;2023-11-19T10:30:27;42.75;;;10.48;;
51854;SDS011;37895;53.240;6.572;2023-11-19T10:35:33;44.47;;;11.70;;
51854;SDS011;37895;53.240;6.572;2023-11-19T10:38:00;46.42;;;11.88;;
51854;SDS011;37895;53.240;6.572;2023-11-19T10:40:38;44.53;;;11.20;;
51854;SDS011;37895;53.240;6.572;2023-11-19T10:43:07;39.80;;;11.23;;
51854;SDS011;37895;53.240;6.572;2023-11-19T10:45:34;34.60;;;10.35;;
51854;SDS011;37895;53.240;6.572;2023-11-19T10:48:00;48.92;;;11.52;;
51854;SDS011;37895;53.240;6.572;2023-11-19T10:50:29;42.97;;;10.45;;
51854;SDS011;37895;53.240;6.572;2023-11-19T10:52:58;47.38;;;11.80;;
51854;SDS011;37895;53.240;6.572;2023-11-19T10:55:26;43.53;;;11.88;;
51854;SDS011;37895;53.240;6.572;2023-11-19T10:57:56;48.90;;;12.15;;
51854;SDS011;37895;53.240;6.572;2023-11-19T11:00:25;40.20;;;10.88;;
51854;SDS011;37895;53.240;6.572;2023-11-19T11:02:56;44.38;;;11.40;;
51854;SDS011;37895;53.240;6.572;2023-11-19T11:05:26;39.00;;;10.65;;
51854;SDS011;37895;53.240;6.572;2023-11-19T11:07:52;39.65;;;10.70;;
51854;SDS011;37895;53.240;6.572;2023-11-19T11:10:22;43.92;;;11.88;;
51854;SDS011;37895;53.240;6.572;2023-11-19T11:12:51;42.60;;;10.20;;
51854;SDS011;37895;53.240;6.572;2023-11-19T11:15:24;35.30;;;9.15;;
51854;SDS011;37895;53.240;6.572;2023-11-19T11:17:54;33.28;;;10.00;;
51854;SDS011;37895;53.240;6.572;2023-11-19T11:20:26;39.60;;;11.27;;
51854;SDS011;37895;53.240;6.572;2023-11-19T11:23:07;35.25;;;9.52;;
51854;SDS011;37895;53.240;6.572;2023-11-19T11:28:34;33.17;;;9.60;;
51854;SDS011;37895;53.240;6.572;2023-11-19T11:31:24;34.60;;;9.95;;
51854;SDS011;37895;53.240;6.572;2023-11-19T11:37:25;36.78;;;10.13;;
51854;SDS011;37895;53.240;6.572;2023-11-19T11:39:35;36.78;;;9.90;;
51854;SDS011;37895;53.240;6.572;2023-11-19T11:44:58;42.17;;;10.73;;
51854;SDS011;37895;53.240;6.572;2023-11-19T11:50:14;41.70;;;10.02;;
51854;SDS011;37895;53.240;6.572;2023-11-19T11:55:34;34.70;;;9.50;;
51854;SDS011;37895;53.240;6.572;2023-11-19T11:58:01;38.45;;;9.45;;
51854;SDS011;37895;53.240;6.572;2023-11-19T12:02:57;38.25;;;10.40;;
51854;SDS011;37895;53.240;6.572;2023-11-19T12:05:25;39.17;;;9.13;;
51854;SDS011;37895;53.240;6.572;2023-11-19T12:08:00;40.95;;;9.65;;
51854;SDS011;37895;53.240;6.572;2023-11-19T12:10:31;40.85;;;10.07;;
51854;SDS011;37895;53.240;6.572;2023-11-19T12:13:01;41.42;;;10.15;;
51854;SDS011;37895;53.240;6.572;2023-11-19T12:15:30;32.13;;;9.25;;
51854;SDS011;37895;53.240;6.572;2023-11-19T12:17:55;39.63;;;10.45;;
51854;SDS011;37895;53.240;6.572;2023-11-19T12:20:22;34.97;;;9.63;;
51854;SDS011;37895;53.240;6.572;2023-11-19T12:22:51;31.15;;;8.70;;
51854;SDS011;37895;53.240;6.572;2023-11-19T12:25:18;34.05;;;9.70;;
51854;SDS011;37895;53.240;6.572;2023-11-19T12:27:49;34.22;;;8.73;;
51854;SDS011;37895;53.240;6.572;2023-11-19T12:30:24;35.75;;;9.80;;
51854;SDS011;37895;53.240;6.572;2023-11-19T12:32:51;33.13;;;8.63;;
51854;SDS011;37895;53.240;6.572;2023-11-19T12:35:18;34.05;;;9.00;;
51854;SDS011;37895;53.240;6.572;2023-11-19T12:40:21;33.90;;;10.25;;
51854;SDS011;37895;53.240;6.572;2023-11-19T12:42:48;35.78;;;9.38;;
51854;SDS011;37895;53.240;6.572;2023-11-19T12:45:14;28.48;;;8.55;;
51854;SDS011;37895;53.240;6.572;2023-11-19T12:47:41;30.95;;;8.60;;
51854;SDS011;37895;53.240;6.572;2023-11-19T12:50:09;35.97;;;8.43;;
51854;SDS011;37895;53.240;6.572;2023-11-19T12:52:35;39.33;;;9.00;;
51854;SDS011;37895;53.240;6.572;2023-11-19T12:55:05;31.27;;;8.65;;
51854;SDS011;37895;53.240;6.572;2023-11-19T12:57:52;34.60;;;10.05;;
51854;SDS011;37895;53.240;6.572;2023-11-19T13:00:19;36.30;;;9.88;;
51854;SDS011;37895;53.240;6.572;2023-11-19T13:02:50;37.22;;;8.10;;
51854;SDS011;37895;53.240;6.572;2023-11-19T13:05:28;33.88;;;9.23;;
51854;SDS011;37895;53.240;6.572;2023-11-19T13:08:00;30.75;;;8.55;;
51854;SDS011;37895;53.240;6.572;2023-11-19T13:10:30;28.65;;;8.85;;
51854;SDS011;37895;53.240;6.572;2023-11-19T13:13:15;34.88;;;8.70;;
51854;SDS011;37895;53.240;6.572;2023-11-19T13:15:41;29.50;;;8.07;;
51854;SDS011;37895;53.240;6.572;2023-11-19T13:18:10;38.42;;;9.02;;
51854;SDS011;37895;53.240;6.572;2023-11-19T13:23:02;32.83;;;8.65;;
51854;SDS011;37895;53.240;6.572;2023-11-19T13:25:29;30.10;;;9.00;;
51854;SDS011;37895;53.240;6.572;2023-11-19T13:27:55;30.95;;;8.35;;
51854;SDS011;37895;53.240;6.572;2023-11-19T13:30:22;28.02;;;8.88;;
51854;SDS011;37895;53.240;6.572;2023-11-19T13:35:14;33.83;;;9.05;;
51854;SDS011;37895;53.240;6.572;2023-11-19T13:40:06;32.88;;;9.52;;
51854;SDS011;37895;53.240;6.572;2023-11-19T13:42:32;31.45;;;7.95;;
51854;SDS011;37895;53.240;6.572;2023-11-19T13:44:58;35.72;;;9.48;;
51854;SDS011;37895;53.240;6.572;2023-11-19T13:47:24;35.75;;;9.00;;
51854;SDS011;37895;53.240;6.572;2023-11-19T13:49:49;33.85;;;9.70;;
51854;SDS011;37895;53.240;6.572;2023-11-19T13:52:15;31.77;;;8.88;;
51854;SDS011;37895;53.240;6.572;2023-11-19T13:54:41;38.17;;;10.13;;
51854;SDS011;37895;53.240;6.572;2023-11-19T13:57:06;36.25;;;8.18;;
51854;SDS011;37895;53.240;6.572;2023-11-19T13:59:32;29.27;;;9.05;;
51854;SDS011;37895;53.240;6.572;2023-11-19T14:01:58;34.97;;;9.25;;
51854;SDS011;37895;53.240;6.572;2023-11-19T14:04:23;35.55;;;8.93;;
51854;SDS011;37895;53.240;6.572;2023-11-19T14:09:15;36.63;;;9.18;;
51854;SDS011;37895;53.240;6.572;2023-11-19T14:11:42;39.55;;;9.80;;
51854;SDS011;37895;53.240;6.572;2023-11-19T14:14:08;35.30;;;9.57;;
51854;SDS011;37895;53.240;6.572;2023-11-19T14:16:34;27.42;;;9.02;;
51854;SDS011;37895;53.240;6.572;2023-11-19T14:18:59;32.47;;;8.15;;
51854;SDS011;37895;53.240;6.572;2023-11-19T14:21:25;35.25;;;8.70;;
51854;SDS011;37895;53.240;6.572;2023-11-19T14:23:55;41.15;;;9.63;;
51854;SDS011;37895;53.240;6.572;2023-11-19T14:26:20;37.72;;;9.38;;
51854;SDS011;37895;53.240;6.572;2023-11-19T14:28:46;33.75;;;9.63;;
51854;SDS011;37895;53.240;6.572;2023-11-19T14:31:12;33.35;;;9.07;;
51854;SDS011;37895;53.240;6.572;2023-11-19T14:33:38;32.58;;;9.32;;
51854;SDS011;37895;53.240;6.572;2023-11-19T14:36:04;31.20;;;8.82;;
51854;SDS011;37895;53.240;6.572;2023-11-19T14:38:31;31.33;;;8.38;;
51854;SDS011;37895;53.240;6.572;2023-11-19T14:40:57;32.33;;;8.75;;
51854;SDS011;37895;53.240;6.572;2023-11-19T14:43:24;38.17;;;9.15;;
51854;SDS011;37895;53.240;6.572;2023-11-19T14:45:50;33.38;;;9.18;;
51854;SDS011;37895;53.240;6.572;2023-11-19T14:48:16;35.65;;;8.98;;
51854;SDS011;37895;53.240;6.572;2023-11-19T14:50:42;36.58;;;9.70;;
51854;SDS011;37895;53.240;6.572;2023-11-19T14:53:09;32.53;;;9.25;;
51854;SDS011;37895;53.240;6.572;2023-11-19T14:55:35;34.45;;;9.63;;
51854;SDS011;37895;53.240;6.572;2023-11-19T14:58:01;32.28;;;9.48;;
51854;SDS011;37895;53.240;6.572;2023-11-19T15:00:26;35.47;;;9.68;;
51854;SDS011;37895;53.240;6.572;2023-11-19T15:02:52;34.13;;;9.13;;
51854;SDS011;37895;53.240;6.572;2023-11-19T15:05:18;33.30;;;9.75;;
51854;SDS011;37895;53.240;6.572;2023-11-19T15:07:44;36.75;;;9.43;;
51854;SDS011;37895;53.240;6.572;2023-11-19T15:10:10;35.10;;;10.20;;
51854;SDS011;37895;53.240;6.572;2023-11-19T15:12:37;34.42;;;8.25;;
51854;SDS011;37895;53.240;6.572;2023-11-19T15:15:05;34.28;;;9.82;;
51854;SDS011;37895;53.240;6.572;2023-11-19T15:17:33;46.08;;;11.65;;
51854;SDS011;37895;53.240;6.572;2023-11-19T15:19:58;39.67;;;10.57;;
51854;SDS011;37895;53.240;6.572;2023-11-19T15:22:24;31.33;;;10.38;;
51854;SDS011;37895;53.240;6.572;2023-11-19T15:24:49;34.58;;;9.80;;
51854;SDS011;37895;53.240;6.572;2023-11-19T15:27:15;38.83;;;10.52;;